Indianapolis, Indiana
Traffic Map
Current Weather Conditions
Indianapolis, Indiana
Few Clouds
Few Clouds

Feels Like: 3°
Wind Chill: Ceiling: Unl
Heat Index: Visibility: 10mi
Dew Point: -1° Wind: 0mph
Humidity: 79% Direction: ° ()
Pressure: 30.17in Gusts: 0mph
Raw Report DataKIND 301254Z 00000KT 10SM R05L/6000VP6000FT FEW035 FEW200 03/M01 A3017 RMK AO2 SLP221 T00281006 $
Traffic Incident Summary
Active as of:
Severity:
Category:
InformationThere was an issue retrieving the traffic information for this location. Please try a different location or try again shortly.
Advertisements
Track Severe Weather on mobile